CheckWX is a tool to help pilots better visualize weather data.  It is not intended as a substitute for an official pre-flight weather briefing.

10:50:22 UTC

KRHI TAF
Rhinelander-Oneida County Airport
Rhinelander, Wisconsin, USA
KRHI 170520Z 1706/1806 16004KT P6SM BKN200 FM170700 18004KT P6SM BKN140 TEMPO 1709/1713 3SM BR FM171300 17007KT P6SM BKN200 FM171600 17010G16KT P6SM BKN200

Sep-17@
06:00 UTC

Sep-17 @ 06:00 UTC

Sep-17@
07:00 UTC

Sep-17 @ 07:00 UTC

KRHI 170520Z 1706/1806 16004KT P6SM BKN200

Expired

Wind
  • 160° at 4 KTS
Cloud Levels
  • Broken at 20,000' AGL

Sep-17@
07:00 UTC

Sep-17 @ 07:00 UTC

Sep-17@
13:00 UTC

Sep-17 @ 13:00 UTC

FM170700 18004KT P6SM BKN140

From

From Standard forecast or significant change

Wind
  • 180° at 4 KTS
Cloud Levels
  • Broken at 14,000' AGL

Sep-17@
09:00 UTC

Sep-17 @ 09:00 UTC

Sep-17@
13:00 UTC

Sep-17 @ 13:00 UTC

TEMPO 1709/1713 3SM BR

Temporary

Temporary Changes expected for less than half the time period

Conditions
Mist

Sep-17@
13:00 UTC

Sep-17 @ 13:00 UTC

Sep-17@
16:00 UTC

Sep-17 @ 16:00 UTC

FM171300 17007KT P6SM BKN200

From

From Standard forecast or significant change

Wind
  • 170° at 7 KTS
Cloud Levels
  • Broken at 20,000' AGL

Sep-17@
16:00 UTC

Sep-17 @ 16:00 UTC

Sep-18@
06:00 UTC

Sep-18 @ 06:00 UTC

FM171600 17010G16KT P6SM BKN200

From

From Standard forecast or significant change

Wind
  • 170° at 10 KTS
  • {Gusting to 16 KTS
Cloud Levels
  • Broken at 20,000' AGL